Time;durP1;ratioP1;P1;durP2;ratioP2;P2;SDS_P1;SDS_P2;PMS_P1;PMS_P2;Temp;Humidity;BMP_temperature;BMP_pressure;BME280_temperature;BME280_humidity;BME280_pressure;Samples;Min_cycle;Max_cycle;Signal;HPM_P1;HPM_P2
2021/06/26 00:00:53;;;;;;;24.88;14.32;;;;;;;12.92;73.85;99658.03;5025109;28;20060;-61
2021/06/26 00:03:22;;;;;;;25.98;14.10;;;;;;;12.99;73.63;99652.50;5012964;28;20033;-61
2021/06/26 00:05:48;;;;;;;23.13;14.65;;;;;;;12.91;73.83;99662.59;5019320;28;20072;-61
2021/06/26 00:08:13;;;;;;;27.95;14.40;;;;;;;13.08;73.68;99657.19;5031207;28;20056;-61
2021/06/26 00:10:40;;;;;;;26.15;14.43;;;;;;;13.07;73.75;99658.25;5027005;28;20107;-61
2021/06/26 00:13:05;;;;;;;25.00;14.60;;;;;;;13.06;73.99;99653.94;5011384;28;20080;-61
2021/06/26 00:15:31;;;;;;;26.88;14.52;;;;;;;13.00;74.24;99664.88;5016603;28;20033;-61
2021/06/26 00:17:56;;;;;;;26.17;14.02;;;;;;;13.03;74.27;99658.97;5032624;28;20033;-61
2021/06/26 00:20:22;;;;;;;26.95;14.48;;;;;;;13.05;74.10;99668.44;5029231;28;20096;-61
2021/06/26 00:22:47;;;;;;;26.30;14.25;;;;;;;13.10;73.48;99668.53;5012659;28;20445;-61
2021/06/26 00:25:13;;;;;;;24.13;12.82;;;;;;;13.17;72.96;99661.06;5012440;28;20026;-61
2021/06/26 00:27:38;;;;;;;25.08;13.70;;;;;;;13.25;72.40;99667.09;5012728;28;20041;-61
2021/06/26 00:30:04;;;;;;;21.98;13.88;;;;;;;13.20;72.53;99670.53;5012193;28;20061;-61
2021/06/26 00:32:29;;;;;;;22.85;13.88;;;;;;;13.18;72.70;99672.66;5012517;28;20033;-61
2021/06/26 00:34:55;;;;;;;22.58;14.27;;;;;;;13.06;73.17;99669.28;5012412;28;20103;-61
2021/06/26 00:37:20;;;;;;;27.45;14.20;;;;;;;12.64;76.01;99667.03;5010682;28;20034;-61
2021/06/26 00:39:46;;;;;;;27.85;15.10;;;;;;;12.54;76.27;99665.00;5012277;28;20045;-61
2021/06/26 00:42:11;;;;;;;27.95;14.57;;;;;;;12.39;76.88;99659.38;5011815;28;20046;-61
2021/06/26 00:44:37;;;;;;;28.73;15.27;;;;;;;12.57;77.06;99664.50;5012329;28;20029;-61
2021/06/26 00:47:05;;;;;;;26.95;14.73;;;;;;;12.57;76.65;99667.19;5010686;28;20042;-61
2021/06/26 00:49:30;;;;;;;23.83;14.63;;;;;;;12.55;77.05;99669.31;5012345;28;20084;-61
2021/06/26 00:51:56;;;;;;;24.80;15.43;;;;;;;12.42;77.40;99661.56;5011830;28;20396;-61
2021/06/26 00:54:21;;;;;;;22.58;14.27;;;;;;;12.23;78.02;99659.13;5012532;28;20022;-61
2021/06/26 00:56:47;;;;;;;22.75;14.68;;;;;;;11.93;79.60;99663.94;5010678;28;20045;-61
2021/06/26 00:59:14;;;;;;;24.08;14.75;;;;;;;11.98;80.42;99664.03;5011114;28;20033;-61
2021/06/26 01:01:40;;;;;;;26.42;15.70;;;;;;;11.94;79.45;99657.53;5010497;28;20129;-61
2021/06/26 01:04:05;;;;;;;26.33;15.10;;;;;;;11.92;80.50;99665.00;5011038;28;20033;-61
2021/06/26 01:06:30;;;;;;;28.15;15.35;;;;;;;11.74;80.79;99658.72;5011756;28;20038;-61
2021/06/26 01:08:56;;;;;;;21.13;14.63;;;;;;;11.67;82.04;99655.38;5013712;28;20030;-61
2021/06/26 01:11:21;;;;;;;26.25;14.15;;;;;;;11.78;80.83;99657.22;5014209;28;20042;-61
2021/06/26 01:13:47;;;;;;;28.80;14.82;;;;;;;11.80;80.35;99668.50;5015577;28;20021;-61
2021/06/26 01:16:12;;;;;;;31.20;15.23;;;;;;;11.77;80.98;99662.81;5015193;28;20034;-61
2021/06/26 01:18:38;;;;;;;28.17;14.88;;;;;;;11.79;80.85;99663.38;5015598;28;20030;-61
2021/06/26 01:21:03;;;;;;;31.10;14.90;;;;;;;11.77;80.92;99652.88;5015082;28;20033;-61
2021/06/26 01:23:29;;;;;;;21.95;14.13;;;;;;;11.79;80.86;99656.16;5015611;28;20037;-61
2021/06/26 01:25:54;;;;;;;25.80;14.80;;;;;;;11.68;81.51;99650.81;5015240;28;20091;-61
2021/06/26 01:28:20;;;;;;;26.35;15.90;;;;;;;11.73;81.71;99651.75;5014183;28;20424;-61
2021/06/26 01:30:45;;;;;;;25.83;16.15;;;;;;;11.62;82.41;99655.28;5014857;28;20358;-61
2021/06/26 01:33:11;;;;;;;30.00;16.50;;;;;;;11.61;82.26;99656.34;5015301;28;20030;-61
2021/06/26 01:35:36;;;;;;;28.75;16.20;;;;;;;11.79;81.64;99652.66;5014949;28;20064;-61
2021/06/26 01:38:02;;;;;;;34.88;16.33;;;;;;;11.71;81.94;99651.16;5015188;28;20021;-61
2021/06/26 01:40:28;;;;;;;33.92;15.98;;;;;;;11.83;81.72;99657.31;5014914;28;20034;-62
2021/06/26 01:42:54;;;;;;;27.02;14.98;;;;;;;11.90;81.27;99661.72;5013736;28;20515;-61
2021/06/26 01:45:19;;;;;;;27.67;15.82;;;;;;;11.84;81.27;99664.28;5014767;28;20041;-61
2021/06/26 01:47:46;;;;;;;29.98;15.07;;;;;;;11.88;81.61;99653.91;5015107;28;20022;-61
2021/06/26 01:50:12;;;;;;;26.35;15.13;;;;;;;11.85;82.01;99652.47;5014437;28;20443;-61
2021/06/26 01:52:37;;;;;;;28.17;15.02;;;;;;;11.71;81.30;99655.72;5014954;28;20028;-61
2021/06/26 01:55:03;;;;;;;27.60;14.93;;;;;;;11.70;81.64;99654.88;5014480;28;20072;-62
2021/06/26 01:57:29;;;;;;;26.95;15.45;;;;;;;11.65;81.73;99644.06;5015097;28;20025;-61
2021/06/26 01:59:54;;;;;;;30.42;16.88;;;;;;;11.55;82.82;99643.84;5013690;28;20032;-61
2021/06/26 02:02:20;;;;;;;30.15;15.68;;;;;;;11.54;82.61;99640.34;5014205;28;20180;-61
2021/06/26 02:04:45;;;;;;;27.73;15.38;;;;;;;11.54;83.65;99636.88;5014303;28;20451;-61
2021/06/26 02:07:10;;;;;;;26.52;15.93;;;;;;;11.46;83.59;99640.75;5013008;28;20439;-61
2021/06/26 02:09:36;;;;;;;30.27;15.45;;;;;;;11.50;83.70;99647.25;5014679;28;20127;-61
2021/06/26 02:12:01;;;;;;;29.42;16.23;;;;;;;11.58;83.67;99638.84;5014140;28;20034;-61
2021/06/26 02:14:27;;;;;;;24.88;15.18;;;;;;;11.56;83.61;99635.56;5014638;28;20080;-61
2021/06/26 02:16:52;;;;;;;26.48;15.75;;;;;;;11.71;83.49;99642.31;5012864;28;20038;-61
2021/06/26 02:19:17;;;;;;;24.35;15.48;;;;;;;11.83;84.12;99648.41;5014487;28;20032;-60
2021/06/26 02:21:43;;;;;;;27.02;15.38;;;;;;;11.80;82.79;99641.66;5013838;28;20034;-60
2021/06/26 02:24:08;;;;;;;31.60;16.55;;;;;;;11.71;83.28;99642.31;5014533;28;20034;-60
2021/06/26 02:26:34;;;;;;;28.05;14.93;;;;;;;11.70;83.13;99646.84;5013920;28;20095;-60
2021/06/26 02:28:59;;;;;;;27.77;16.08;;;;;;;11.58;82.66;99644.22;5013136;28;20029;-60
2021/06/26 02:31:25;;;;;;;24.08;14.70;;;;;;;11.49;83.04;99650.19;5013878;28;20046;-60
2021/06/26 02:33:50;;;;;;;23.50;15.23;;;;;;;11.39;83.47;99648.13;5014144;28;20026;-60
2021/06/26 02:36:16;;;;;;;26.08;15.32;;;;;;;11.24;83.69;99648.59;5013793;28;20038;-60
2021/06/26 02:38:41;;;;;;;23.25;14.20;;;;;;;11.27;84.54;99663.41;5014298;28;20026;-60
2021/06/26 02:41:07;;;;;;;27.33;15.30;;;;;;;11.29;83.89;99662.13;5013377;28;20492;-60
2021/06/26 02:43:32;;;;;;;26.92;15.07;;;;;;;11.16;84.71;99657.03;5012727;28;20034;-60
2021/06/26 02:45:57;;;;;;;28.15;15.30;;;;;;;11.11;84.92;99657.72;5013524;28;20041;-60
2021/06/26 02:48:23;;;;;;;27.38;15.60;;;;;;;11.06;85.87;99660.31;5013904;28;20030;-60
2021/06/26 02:50:49;;;;;;;27.42;16.70;;;;;;;11.17;85.74;99654.09;5013407;28;20045;-61
2021/06/26 02:53:14;;;;;;;26.60;15.38;;;;;;;11.22;84.42;99650.72;5013782;28;20028;-60
2021/06/26 02:55:40;;;;;;;25.70;14.70;;;;;;;11.09;84.48;99657.16;5012082;28;20038;-61
2021/06/26 02:58:05;;;;;;;28.08;16.17;;;;;;;11.01;85.28;99646.78;5013985;28;20056;-60
2021/06/26 03:00:31;;;;;;;28.65;15.35;;;;;;;11.02;86.13;99649.22;4995415;28;20412;-60
2021/06/26 03:02:56;;;;;;;28.35;15.75;;;;;;;11.04;85.73;99658.91;5013589;28;20080;-60
2021/06/26 03:05:22;;;;;;;29.65;14.80;;;;;;;11.10;85.57;99656.09;5012023;28;20033;-60
2021/06/26 03:07:51;;;;;;;26.42;16.15;;;;;;;11.14;85.27;99653.75;5013792;28;20025;-60
2021/06/26 03:10:16;;;;;;;33.38;15.23;;;;;;;11.20;85.37;99660.84;5013073;28;20076;-60
2021/06/26 03:12:42;;;;;;;29.58;15.27;;;;;;;11.04;84.99;99656.22;5013521;28;20026;-60
2021/06/26 03:15:07;;;;;;;27.45;15.52;;;;;;;11.04;85.26;99661.59;5011807;28;20022;-60
2021/06/26 03:17:33;;;;;;;27.42;16.35;;;;;;;11.02;85.82;99661.81;5013372;28;20480;-60
2021/06/26 03:19:58;;;;;;;32.97;15.95;;;;;;;11.02;86.56;99664.50;5013404;28;20433;-60
2021/06/26 03:22:24;;;;;;;27.27;14.57;;;;;;;10.87;85.26;99664.97;5012857;28;20042;-60
2021/06/26 03:24:49;;;;;;;36.92;16.75;;;;;;;10.95;85.42;99666.47;5013456;28;20026;-60
2021/06/26 03:27:15;;;;;;;33.30;17.63;;;;;;;10.95;85.39;99661.13;5012911;28;20049;-60
2021/06/26 03:29:41;;;;;;;29.10;15.27;;;;;;;11.05;87.29;99660.53;5013259;28;20026;-60
2021/06/26 03:32:07;;;;;;;27.90;15.15;;;;;;;11.07;84.85;99663.81;5012299;28;20038;-60
2021/06/26 03:34:32;;;;;;;29.33;15.80;;;;;;;11.09;84.72;99667.88;5013429;28;20358;-60
2021/06/26 03:36:57;;;;;;;31.48;15.80;;;;;;;11.19;84.66;99667.28;5012856;28;20365;-61
2021/06/26 03:39:23;;;;;;;29.10;15.13;;;;;;;11.20;84.31;99676.94;5013219;28;20095;-60
2021/06/26 03:41:49;;;;;;;28.25;15.15;;;;;;;11.40;82.85;99672.00;5012556;28;20038;-61
2021/06/26 03:44:14;;;;;;;28.05;16.80;;;;;;;11.90;81.45;99672.47;5012987;28;20030;-61
2021/06/26 03:46:40;;;;;;;22.95;14.30;;;;;;;12.06;79.62;99666.34;5012623;28;20038;-60
2021/06/26 03:49:05;;;;;;;25.80;14.55;;;;;;;11.84;80.19;99672.34;5012987;28;20468;-61
2021/06/26 03:51:31;;;;;;;27.05;14.60;;;;;;;11.52;81.90;99676.56;5012425;28;20042;-60
2021/06/26 03:53:56;;;;;;;35.78;14.98;;;;;;;11.46;82.46;99662.22;5012785;28;20026;-61
2021/06/26 03:56:22;;;;;;;25.85;14.48;;;;;;;11.60;82.12;99668.13;5012352;28;20148;-61
2021/06/26 03:58:47;;;;;;;29.48;14.85;;;;;;;11.92;80.73;99671.19;5011570;28;20057;-61
2021/06/26 04:01:12;;;;;;;25.67;14.80;;;;;;;12.02;80.06;99671.38;5012162;28;20095;-61
2021/06/26 04:03:38;;;;;;;23.13;14.93;;;;;;;12.78;77.28;99678.25;5012714;28;20030;-61
2021/06/26 04:06:04;;;;;;;23.70;13.20;;;;;;;13.55;73.64;99685.53;5012352;28;20041;-61
2021/06/26 04:08:29;;;;;;;20.75;13.10;;;;;;;14.03;71.74;99682.06;5012845;28;20065;-61
2021/06/26 04:10:54;;;;;;;18.45;11.65;;;;;;;14.39;69.55;99684.28;5012440;28;20161;-61
2021/06/26 04:13:20;;;;;;;23.35;12.18;;;;;;;14.32;69.14;99681.78;5012531;28;20052;-61
2021/06/26 04:15:45;;;;;;;17.83;11.60;;;;;;;14.35;68.01;99683.97;5012339;28;20049;-61
2021/06/26 04:18:11;;;;;;;17.88;11.25;;;;;;;14.16;68.83;99682.72;5012673;28;20049;-61
2021/06/26 04:20:36;;;;;;;21.35;12.77;;;;;;;14.57;67.25;99686.59;5012502;28;20377;-61
2021/06/26 04:23:01;;;;;;;20.35;11.98;;;;;;;14.65;66.81;99688.00;5011452;28;20504;-61
2021/06/26 04:25:28;;;;;;;20.40;11.88;;;;;;;15.26;67.39;99682.22;5012368;28;20038;-61
2021/06/26 04:27:54;;;;;;;17.35;10.88;;;;;;;15.99;62.46;99693.06;5012637;28;20100;-61
2021/06/26 04:30:19;;;;;;;21.52;12.30;;;;;;;14.63;66.91;99687.47;5012135;28;20072;-61
2021/06/26 04:32:45;;;;;;;17.35;10.93;;;;;;;14.36;68.15;99693.69;5012497;28;20512;-61
2021/06/26 04:35:12;;;;;;;19.63;12.30;;;;;;;15.31;64.93;99696.56;5012329;28;20033;-62
2021/06/26 04:37:38;;;;;;;22.58;11.43;;;;;;;15.99;62.47;99695.75;5012449;28;20044;-61
2021/06/26 04:40:04;;;;;;;16.67;10.88;;;;;;;15.10;65.22;99695.63;5012025;28;20014;-62
2021/06/26 04:42:29;;;;;;;24.35;11.63;;;;;;;14.32;68.62;99695.25;5012300;28;20030;-61
2021/06/26 04:44:55;;;;;;;19.90;11.63;;;;;;;14.14;69.61;99692.94;5015157;28;20026;-61
2021/06/26 04:47:20;;;;;;;23.38;11.23;;;;;;;15.18;66.97;99694.34;5015699;28;20034;-61
2021/06/26 04:49:46;;;;;;;23.00;11.63;;;;;;;16.97;59.88;99692.06;4998751;28;20033;-61
2021/06/26 04:52:11;;;;;;;18.67;10.85;;;;;;;17.36;58.38;99694.13;5015785;28;20377;-61
2021/06/26 04:54:36;;;;;;;19.27;11.02;;;;;;;17.56;57.38;99697.84;5016120;28;20034;-61
2021/06/26 04:57:03;;;;;;;17.25;10.25;;;;;;;16.60;60.42;99685.03;5015518;28;20064;-61
2021/06/26 04:59:28;;;;;;;28.27;10.85;;;;;;;15.65;64.27;99696.19;5016008;28;20029;-61
2021/06/26 05:01:53;;;;;;;17.35;11.50;;;;;;;15.70;64.26;99701.63;5015161;28;20054;-61
2021/06/26 05:04:19;;;;;;;25.33;11.50;;;;;;;17.76;57.99;99703.19;5015926;28;20099;-61
2021/06/26 05:06:45;;;;;;;19.90;11.60;;;;;;;19.20;53.06;99702.19;5015496;28;20468;-61
2021/06/26 05:09:10;;;;;;;18.63;10.68;;;;;;;20.28;49.58;99694.28;5014680;28;20025;-62
2021/06/26 05:11:36;;;;;;;19.77;11.07;;;;;;;21.32;47.32;99706.69;5015542;28;20117;-63
2021/06/26 05:14:01;;;;;;;18.60;10.27;;;;;;;21.02;47.58;99697.19;5015747;28;20025;-62
2021/06/26 05:16:27;;;;;;;15.68;10.52;;;;;;;21.89;45.37;99705.56;5015179;28;20034;-62
2021/06/26 05:18:52;;;;;;;17.15;10.40;;;;;;;23.19;42.18;99703.03;5015745;28;20068;-62
2021/06/26 05:21:19;;;;;;;17.58;10.07;;;;;;;23.39;41.72;99710.69;5014828;28;20042;-62
2021/06/26 05:23:44;;;;;;;19.20;9.80;;;;;;;24.40;39.90;99709.91;5015621;28;20022;-62
2021/06/26 05:26:10;;;;;;;17.33;10.38;;;;;;;22.57;43.24;99701.03;5014946;28;20038;-62
2021/06/26 05:28:36;;;;;;;17.15;9.80;;;;;;;23.89;41.18;99704.88;5015551;28;20427;-62
2021/06/26 05:31:02;;;;;;;17.60;9.52;;;;;;;23.95;41.09;99715.69;5014778;28;20048;-62
2021/06/26 05:33:27;;;;;;;17.73;10.05;;;;;;;24.78;39.63;99720.22;5015475;28;20025;-62
2021/06/26 05:35:53;;;;;;;20.70;10.35;;;;;;;24.66;40.22;99720.88;5014761;28;20127;-62
2021/06/26 05:38:18;;;;;;;20.48;9.60;;;;;;;25.24;39.75;99726.91;5015142;28;20029;-62
2021/06/26 05:40:44;;;;;;;18.48;9.93;;;;;;;25.28;38.69;99727.84;5015023;28;20044;-62
2021/06/26 05:43:09;;;;;;;17.15;10.15;;;;;;;25.12;37.96;99720.13;5015047;28;20030;-62
2021/06/26 05:45:34;;;;;;;24.17;10.75;;;;;;;24.35;40.22;99710.88;5014554;28;20046;-62
2021/06/26 05:48:00;;;;;;;15.13;10.75;;;;;;;24.58;40.01;99717.00;5015173;28;20072;-62
2021/06/26 05:50:25;;;;;;;16.27;10.27;;;;;;;24.70;40.40;99719.09;5014664;28;20088;-62
2021/06/26 05:52:53;;;;;;;20.17;10.40;;;;;;;24.66;40.10;99718.94;5013949;28;20109;-62
2021/06/26 05:55:18;;;;;;;16.92;11.00;;;;;;;25.29;39.21;99715.75;5014795;28;20056;-62
2021/06/26 05:57:44;;;;;;;16.75;10.20;;;;;;;26.15;36.28;99721.91;5015071;28;20065;-62
2021/06/26 06:00:10;;;;;;;18.67;9.73;;;;;;;25.57;37.95;99725.13;5014586;28;20046;-62
2021/06/26 06:02:36;;;;;;;16.08;9.73;;;;;;;25.34;38.11;99715.56;5014793;28;20100;-62
2021/06/26 06:05:01;;;;;;;16.85;10.23;;;;;;;23.95;40.99;99721.16;5013234;28;20034;-61
2021/06/26 06:07:26;;;;;;;16.77;10.13;;;;;;;24.73;39.71;99723.91;5015071;28;20026;-61
2021/06/26 06:09:52;;;;;;;15.48;9.55;;;;;;;25.90;37.90;99727.22;5013684;28;20473;-62
2021/06/26 06:12:17;;;;;;;20.00;10.13;;;;;;;25.99;37.78;99725.25;5014502;28;20515;-61
2021/06/26 06:14:43;;;;;;;14.27;8.98;;;;;;;26.26;36.76;99731.34;5014935;28;20388;-61
2021/06/26 06:17:08;;;;;;;15.57;9.50;;;;;;;26.74;36.45;99731.94;5014395;28;20034;-61
2021/06/26 06:19:34;;;;;;;17.83;9.23;;;;;;;26.14;37.60;99728.53;5014219;28;20026;-61
2021/06/26 06:21:59;;;;;;;17.35;9.95;;;;;;;26.10;37.22;99733.09;5012787;28;20038;-61
2021/06/26 06:24:25;;;;;;;16.05;9.77;;;;;;;26.70;35.66;99737.28;5013353;28;20509;-61
2021/06/26 06:26:50;;;;;;;16.73;9.07;;;;;;;27.19;35.24;99734.72;5014148;28;20056;-62
2021/06/26 06:29:16;;;;;;;14.40;9.75;;;;;;;26.91;35.39;99731.78;5013100;28;20389;-62
2021/06/26 06:31:41;;;;;;;21.00;9.88;;;;;;;27.71;34.20;99738.75;5013957;28;20125;-61
2021/06/26 06:34:07;;;;;;;13.70;9.18;;;;;;;27.53;34.70;99739.00;5013259;28;20121;-61
2021/06/26 06:36:32;;;;;;;14.43;10.02;;;;;;;26.94;35.71;99735.78;5013959;28;20038;-62
2021/06/26 06:38:57;;;;;;;18.52;9.30;;;;;;;27.87;34.13;99744.41;5014429;28;20384;-61
2021/06/26 06:41:23;;;;;;;13.38;8.73;;;;;;;27.22;35.97;99747.78;5012400;28;20062;-62
2021/06/26 06:43:48;;;;;;;16.30;9.00;;;;;;;28.11;34.35;99741.59;5014060;28;20037;-61
2021/06/26 06:46:14;;;;;;;11.95;9.32;;;;;;;28.64;33.69;99732.50;5012528;28;20038;-62
2021/06/26 06:48:39;;;;;;;12.57;8.77;;;;;;;28.39;34.26;99733.38;5012799;28;20457;-63
2021/06/26 06:51:05;;;;;;;16.48;8.57;;;;;;;29.52;32.01;99733.25;4996289;28;20034;-62
2021/06/26 06:53:31;;;;;;;15.25;8.85;;;;;;;28.75;33.11;99728.88;5014068;28;20072;-60
2021/06/26 06:55:58;;;;;;;11.02;8.40;;;;;;;26.93;36.59;99734.97;5013776;28;20046;-60
2021/06/26 06:58:24;;;;;;;14.07;8.75;;;;;;;28.20;34.83;99737.91;5012858;28;20045;-61
2021/06/26 07:00:49;;;;;;;16.80;8.20;;;;;;;28.84;33.63;99731.50;5013489;28;20053;-61
2021/06/26 07:03:15;;;;;;;13.70;7.88;;;;;;;29.20;33.26;99729.69;5013791;28;20206;-61
2021/06/26 07:05:41;;;;;;;11.82;7.40;;;;;;;28.72;33.61;99731.53;5013247;28;20041;-61
2021/06/26 07:08:06;;;;;;;14.88;7.43;;;;;;;28.22;35.47;99735.59;5013356;28;20430;-61
2021/06/26 07:10:31;;;;;;;13.65;8.10;;;;;;;28.31;35.06;99736.28;5013386;28;20044;-61
2021/06/26 07:12:57;;;;;;;16.55;8.15;;;;;;;29.07;32.82;99730.94;5012311;28;20030;-61
2021/06/26 07:15:22;;;;;;;16.80;8.00;;;;;;;28.15;34.51;99734.22;5012679;28;20048;-61
2021/06/26 07:17:48;;;;;;;14.85;8.25;;;;;;;29.46;32.38;99724.44;5012312;28;20056;-62
2021/06/26 07:20:13;;;;;;;11.60;7.88;;;;;;;28.33;34.50;99722.94;5013015;28;20029;-61
2021/06/26 07:22:39;;;;;;;10.23;7.38;;;;;;;29.95;31.84;99722.41;5013493;28;20033;-61
2021/06/26 07:25:05;;;;;;;10.43;7.28;;;;;;;30.19;31.35;99721.38;5013074;28;20034;-62
2021/06/26 07:27:30;;;;;;;10.10;7.38;;;;;;;29.23;33.22;99726.19;5012190;28;20080;-62
2021/06/26 07:29:56;;;;;;;13.93;8.77;;;;;;;29.87;31.69;99722.25;5013774;28;20026;-61
2021/06/26 07:32:21;;;;;;;17.75;8.48;;;;;;;29.07;32.51;99723.44;5012987;28;20453;-61
2021/06/26 07:34:47;;;;;;;14.23;7.97;;;;;;;27.51;35.99;99713.75;5013492;28;20381;-62
2021/06/26 07:37:12;;;;;;;14.15;8.60;;;;;;;28.54;34.36;99720.81;5012856;28;20440;-60
2021/06/26 07:39:38;;;;;;;13.13;7.47;;;;;;;29.58;33.20;99723.53;5013250;28;20038;-60
2021/06/26 07:42:04;;;;;;;13.95;7.65;;;;;;;30.51;31.71;99722.84;5012589;28;20042;-61
2021/06/26 07:44:29;;;;;;;12.93;7.72;;;;;;;30.48;31.51;99720.03;5013460;28;20041;-61
2021/06/26 07:46:54;;;;;;;15.25;7.97;;;;;;;29.68;33.03;99713.94;5011633;28;20112;-62
2021/06/26 07:49:20;;;;;;;12.98;7.43;;;;;;;29.61;33.11;99713.75;5013233;28;20041;-61
2021/06/26 07:51:45;;;;;;;10.02;7.85;;;;;;;29.12;33.84;99716.88;5012716;28;20424;-61
2021/06/26 07:54:11;;;;;;;15.45;8.10;;;;;;;29.54;33.28;99708.03;5013005;28;20038;-60
2021/06/26 07:56:37;;;;;;;17.45;8.43;;;;;;;28.56;34.86;99706.69;5012571;28;20030;-60
2021/06/26 07:59:02;;;;;;;16.65;8.68;;;;;;;30.57;31.26;99709.53;5012106;28;20491;-61
2021/06/26 08:01:28;;;;;;;16.75;8.52;;;;;;;29.79;33.28;99703.91;4994423;28;20125;-61
2021/06/26 08:03:53;;;;;;;12.35;8.80;;;;;;;30.49;32.18;99703.06;5013212;28;20029;-61
2021/06/26 08:06:18;;;;;;;16.00;10.10;;;;;;;28.18;35.69;99694.97;5012411;28;20034;-61
2021/06/26 08:08:44;;;;;;;15.25;9.77;;;;;;;29.82;33.80;99694.91;5011636;28;20029;-61
2021/06/26 08:11:09;;;;;;;12.32;9.18;;;;;;;30.43;32.40;99693.47;5011273;28;20076;-61
2021/06/26 08:13:35;;;;;;;14.82;9.00;;;;;;;30.64;31.82;99704.13;5012475;28;20030;-61
2021/06/26 08:16:00;;;;;;;16.98;9.63;;;;;;;30.71;31.63;99697.94;5004358;28;20044;-61
2021/06/26 08:18:26;;;;;;;12.80;9.82;;;;;;;29.29;34.84;99688.91;5022687;28;20109;-61
2021/06/26 08:20:51;;;;;;;15.25;10.15;;;;;;;29.85;32.91;99691.44;5016346;28;20404;-61
2021/06/26 08:23:17;;;;;;;16.10;9.85;;;;;;;29.86;33.88;99690.28;5016688;28;20041;-61
2021/06/26 08:25:42;;;;;;;17.70;9.63;;;;;;;29.00;35.73;99690.91;5016198;28;20100;-61
2021/06/26 08:28:08;;;;;;;19.13;10.63;;;;;;;29.51;34.34;99686.69;5016774;28;20022;-61
2021/06/26 08:30:33;;;;;;;14.55;10.40;;;;;;;30.28;33.84;99692.38;5016436;28;20042;-63
2021/06/26 08:32:59;;;;;;;15.02;9.65;;;;;;;30.06;33.84;99693.06;5016752;28;20483;-62
2021/06/26 08:35:24;;;;;;;14.13;9.98;;;;;;;28.92;36.96;99683.63;5014486;28;20543;-62
2021/06/26 08:37:50;;;;;;;22.65;11.25;;;;;;;30.70;32.48;99686.09;5017092;28;20029;-61
2021/06/26 08:40:16;;;;;;;17.70;10.68;;;;;;;30.58;32.94;99694.53;5016166;28;20029;-62
2021/06/26 08:42:41;;;;;;;16.95;10.43;;;;;;;29.97;34.28;99692.47;5016534;28;20064;-62
2021/06/26 08:45:09;;;;;;;15.95;9.45;;;;;;;29.89;32.51;99692.31;5016012;28;20029;-62
2021/06/26 08:47:35;;;;;;;16.35;10.05;;;;;;;27.45;36.57;99689.56;5016475;28;20543;-62
2021/06/26 08:50:00;;;;;;;17.75;10.55;;;;;;;28.11;38.54;99681.00;5016378;28;20105;-63
2021/06/26 08:52:25;;;;;;;14.60;10.05;;;;;;;29.60;34.68;99679.78;5016147;28;20050;-62
2021/06/26 08:54:52;;;;;;;14.30;8.77;;;;;;;31.05;32.60;99685.16;5015081;28;20084;-62
2021/06/26 08:57:33;;;;;;;18.15;9.65;;;;;;;29.71;33.31;99684.78;5014489;28;20096;-62
2021/06/26 08:59:59;;;;;;;13.40;9.60;;;;;;;30.20;32.68;99682.28;5016503;28;20141;-62
2021/06/26 09:02:26;;;;;;;14.23;9.77;;;;;;;27.66;37.42;99678.44;5014272;28;20124;-61
2021/06/26 09:04:51;;;;;;;16.63;9.70;;;;;;;26.30;38.98;99676.53;5016113;28;20026;-63
2021/06/26 09:07:29;;;;;;;14.82;9.30;;;;;;;25.44;39.81;99673.25;5014407;28;20032;-61
2021/06/26 09:09:56;;;;;;;15.05;9.02;;;;;;;25.18;40.49;99669.47;5014844;28;20026;-61
2021/06/26 09:12:22;;;;;;;15.75;9.50;;;;;;;23.35;43.25;99670.59;5015695;28;20034;-61
2021/06/26 09:14:48;;;;;;;18.45;10.77;;;;;;;24.82;41.16;99671.84;4998541;28;20022;-61
2021/06/26 09:17:17;;;;;;;18.35;11.10;;;;;;;25.75;39.13;99678.38;5015545;28;20037;-61
2021/06/26 09:19:56;;;;;;;16.55;8.93;;;;;;;25.95;38.67;99680.34;5014754;28;20100;-61
2021/06/26 09:22:22;;;;;;;15.00;9.40;;;;;;;26.43;36.57;99679.00;5015325;28;20033;-61
2021/06/26 09:24:49;;;;;;;15.88;8.85;;;;;;;25.44;39.29;99670.50;5015702;28;20048;-62
2021/06/26 09:27:16;;;;;;;12.93;9.00;;;;;;;26.30;38.14;99674.59;5015359;28;20034;-61
2021/06/26 09:29:53;;;;;;;14.07;9.48;;;;;;;23.55;41.72;99669.22;5014337;28;20022;-61
2021/06/26 09:32:26;;;;;;;13.93;9.73;;;;;;;25.48;38.57;99677.72;5013705;28;20074;-60
2021/06/26 09:34:51;;;;;;;14.30;9.43;;;;;;;25.69;37.61;99676.97;5015342;28;20182;-61
2021/06/26 09:37:18;;;;;;;13.75;8.98;;;;;;;26.09;37.43;99676.56;5015181;28;20066;-61
2021/06/26 09:39:44;;;;;;;17.70;10.32;;;;;;;25.05;40.17;99673.19;5015502;28;20402;-61
2021/06/26 09:42:23;;;;;;;10.85;7.25;;;;;;;26.47;32.85;99677.16;5015041;28;20511;-62
2021/06/26 09:44:52;;;;;;;17.52;7.28;;;;;;;27.06;33.68;99683.56;5015326;28;20373;-63
2021/06/26 09:47:34;;;;;;;9.75;7.05;;;;;;;29.33;30.38;99676.00;5014824;28;20393;-62
2021/06/26 09:50:10;;;;;;;13.88;7.35;;;;;;;27.03;33.13;99678.72;5015481;28;20037;-62
2021/06/26 09:53:00;;;;;;;11.48;6.82;;;;;;;28.42;30.20;99681.44;5015005;28;20042;-62
2021/06/26 09:55:26;;;;;;;12.50;7.03;;;;;;;28.87;27.62;99677.56;5014600;28;20543;-61
2021/06/26 09:57:55;;;;;;;13.90;7.45;;;;;;;27.63;29.88;99690.94;5015127;28;20034;-61
2021/06/26 10:00:23;;;;;;;11.40;7.13;;;;;;;27.37;31.65;99679.47;5014196;28;20037;-61
2021/06/26 10:02:49;;;;;;;12.52;7.43;;;;;;;27.09;32.51;99685.63;5014860;28;20031;-61
2021/06/26 10:05:14;;;;;;;11.30;7.30;;;;;;;27.74;33.32;99681.03;5014525;28;20033;-61
2021/06/26 10:07:40;;;;;;;10.35;7.45;;;;;;;28.80;31.12;99676.22;5014905;28;20026;-61
2021/06/26 10:10:07;;;;;;;11.48;7.40;;;;;;;27.56;32.67;99671.44;5013062;28;20507;-60
2021/06/26 10:12:34;;;;;;;16.75;7.97;;;;;;;27.91;32.13;99668.19;5014998;28;20026;-61
2021/06/26 10:15:00;;;;;;;10.65;7.18;;;;;;;27.46;31.14;99660.91;5014618;28;20442;-61
2021/06/26 10:17:25;;;;;;;12.52;7.32;;;;;;;27.27;32.36;99662.25;5012922;28;20038;-60
2021/06/26 10:19:51;;;;;;;10.02;6.40;;;;;;;25.19;33.29;99664.81;5013449;28;20048;-61
2021/06/26 10:22:16;;;;;;;9.32;6.60;;;;;;;25.93;34.28;99668.09;4996542;28;20050;-60
2021/06/26 10:24:42;;;;;;;10.73;6.85;;;;;;;24.87;34.83;99652.47;5013974;28;20473;-60
2021/06/26 10:27:23;;;;;;;9.38;7.10;;;;;;;25.97;33.40;99655.31;4996369;28;20062;-60
2021/06/26 10:29:49;;;;;;;8.13;6.80;;;;;;;26.09;34.14;99657.34;5014349;28;20037;-60
2021/06/26 10:32:17;;;;;;;9.43;7.50;;;;;;;24.43;35.78;99649.00;5014071;28;20156;-60
2021/06/26 10:34:45;;;;;;;9.02;6.57;;;;;;;26.89;31.72;99648.78;5012905;28;20495;-61
2021/06/26 10:37:22;;;;;;;9.25;6.53;;;;;;;28.74;29.18;99647.31;4996875;28;20037;-61
2021/06/26 10:40:02;;;;;;;11.45;6.38;;;;;;;27.94;30.55;99634.44;5014206;28;20022;-61
2021/06/26 10:42:36;;;;;;;9.95;6.68;;;;;;;26.34;32.55;99639.81;5011720;28;20053;-61
2021/06/26 10:45:02;;;;;;;8.52;6.95;;;;;;;25.47;34.90;99645.94;5013842;28;20025;-62
2021/06/26 10:47:38;;;;;;;8.05;6.28;;;;;;;26.37;33.12;99638.31;5012614;28;20022;-61
2021/06/26 10:50:14;;;;;;;8.55;6.70;;;;;;;26.11;33.46;99641.28;5013905;28;20021;-61
2021/06/26 10:52:50;;;;;;;9.10;6.35;;;;;;;25.12;35.58;99637.84;5014242;28;20037;-61
2021/06/26 10:55:35;;;;;;;8.73;6.90;;;;;;;24.65;36.78;99632.38;5013832;28;20467;-64
2021/06/26 10:58:01;;;;;;;10.20;7.85;;;;;;;25.23;35.33;99637.50;5014058;28;20033;-61
2021/06/26 11:00:33;;;;;;;11.85;6.78;;;;;;;24.63;37.96;99637.38;5012309;28;20132;-61
2021/06/26 11:02:59;;;;;;;9.93;7.03;;;;;;;24.95;36.28;99643.41;5014055;28;20034;-61
2021/06/26 11:05:29;;;;;;;11.30;7.20;;;;;;;25.87;33.14;99633.75;5013516;28;20034;-60
2021/06/26 11:07:55;;;;;;;11.30;7.03;;;;;;;25.15;34.82;99625.41;5013769;28;20036;-61
2021/06/26 11:10:20;;;;;;;10.20;6.80;;;;;;;25.20;35.19;99633.50;5013241;28;20050;-61
2021/06/26 11:12:47;;;;;;;8.70;6.50;;;;;;;25.91;33.63;99641.00;5013974;28;20036;-61
2021/06/26 11:15:13;;;;;;;8.90;6.80;;;;;;;24.24;35.59;99630.97;5012040;28;20025;-61
2021/06/26 11:17:43;;;;;;;9.30;6.95;;;;;;;25.34;35.30;99644.25;5013662;28;20096;-61